sensor_id;sensor_type;location;lat;lon;timestamp;pressure;altitude;pressure_sealevel;temperature;humidity
19112;BME280;9688;51.906;8.376;2022-10-18T00:22:08;101721.59;;;17.51;100.00
19112;BME280;9688;51.906;8.376;2022-10-18T00:25:19;101724.41;;;17.48;100.00
19112;BME280;9688;51.906;8.376;2022-10-18T00:28:31;101727.25;;;17.45;100.00
19112;BME280;9688;51.906;8.376;2022-10-18T00:31:18;101730.72;;;17.47;100.00
19112;BME280;9688;51.906;8.376;2022-10-18T00:34:29;101731.56;;;17.47;100.00
19112;BME280;9688;51.906;8.376;2022-10-18T00:37:17;101723.41;;;17.50;100.00
19112;BME280;9688;51.906;8.376;2022-10-18T00:40:05;101728.69;;;17.52;100.00
19112;BME280;9688;51.906;8.376;2022-10-18T00:42:51;101730.41;;;17.53;100.00
19112;BME280;9688;51.906;8.376;2022-10-18T00:45:37;101729.44;;;17.54;100.00
19112;BME280;9688;51.906;8.376;2022-10-18T00:48:44;101715.38;;;17.50;100.00
19112;BME280;9688;51.906;8.376;2022-10-18T00:51:33;101715.38;;;17.50;100.00
19112;BME280;9688;51.906;8.376;2022-10-18T00:54:22;101715.38;;;17.50;100.00
19112;BME280;9688;51.906;8.376;2022-10-18T00:57:09;101718.91;;;17.51;100.00
19112;BME280;9688;51.906;8.376;2022-10-18T00:59:55;101720.81;;;17.49;100.00
19112;BME280;9688;51.906;8.376;2022-10-18T01:02:42;101709.31;;;17.47;100.00
19112;BME280;9688;51.906;8.376;2022-10-18T01:05:28;101704.84;;;17.47;100.00
19112;BME280;9688;51.906;8.376;2022-10-18T01:08:39;101701.38;;;17.45;100.00
19112;BME280;9688;51.906;8.376;2022-10-18T01:17:11;101693.97;;;17.50;100.00
19112;BME280;9688;51.906;8.376;2022-10-18T01:20:25;101700.28;;;17.49;100.00
19112;BME280;9688;51.906;8.376;2022-10-18T01:23:16;101696.66;;;17.50;100.00
19112;BME280;9688;51.906;8.376;2022-10-18T01:26:16;101688.72;;;17.49;100.00
19112;BME280;9688;51.906;8.376;2022-10-18T01:29:14;101690.50;;;17.48;100.00
19112;BME280;9688;51.906;8.376;2022-10-18T01:32:09;101688.78;;;17.47;100.00
19112;BME280;9688;51.906;8.376;2022-10-18T01:35:00;101683.38;;;17.49;100.00
19112;BME280;9688;51.906;8.376;2022-10-18T01:37:47;101673.44;;;17.51;100.00
19112;BME280;9688;51.906;8.376;2022-10-18T01:40:35;101676.94;;;17.53;100.00
19112;BME280;9688;51.906;8.376;2022-10-18T01:43:23;101675.03;;;17.55;100.00
19112;BME280;9688;51.906;8.376;2022-10-18T01:46:13;101667.88;;;17.55;100.00
19112;BME280;9688;51.906;8.376;2022-10-18T01:49:03;101667.03;;;17.55;100.00
19112;BME280;9688;51.906;8.376;2022-10-18T01:51:49;101668.84;;;17.54;100.00
19112;BME280;9688;51.906;8.376;2022-10-18T01:54:37;101664.56;;;17.50;100.00
19112;BME280;9688;51.906;8.376;2022-10-18T01:57:28;101671.81;;;17.48;100.00
19112;BME280;9688;51.906;8.376;2022-10-18T02:00:22;101678.03;;;17.49;100.00
19112;BME280;9688;51.906;8.376;2022-10-18T02:03:14;101682.44;;;17.50;100.00
19112;BME280;9688;51.906;8.376;2022-10-18T02:06:04;101682.34;;;17.51;100.00
19112;BME280;9688;51.906;8.376;2022-10-18T02:08:55;101676.13;;;17.51;100.00
19112;BME280;9688;51.906;8.376;2022-10-18T02:17:28;101675.50;;;17.46;100.00
19112;BME280;9688;51.906;8.376;2022-10-18T02:20:17;101689.75;;;17.46;100.00
19112;BME280;9688;51.906;8.376;2022-10-18T02:23:07;101675.59;;;17.44;100.00
19112;BME280;9688;51.906;8.376;2022-10-18T02:25:54;101681.09;;;17.41;100.00
19112;BME280;9688;51.906;8.376;2022-10-18T02:28:41;101674.00;;;17.40;100.00
19112;BME280;9688;51.906;8.376;2022-10-18T02:31:30;101673.13;;;17.39;100.00
19112;BME280;9688;51.906;8.376;2022-10-18T02:34:20;101674.00;;;17.40;100.00
19112;BME280;9688;51.906;8.376;2022-10-18T02:37:07;101666.13;;;17.37;100.00
19112;BME280;9688;51.906;8.376;2022-10-18T02:39:55;101669.66;;;17.37;100.00
19112;BME280;9688;51.906;8.376;2022-10-18T02:42:44;101658.22;;;17.35;100.00
19112;BME280;9688;51.906;8.376;2022-10-18T02:45:32;101660.03;;;17.35;100.00
19112;BME280;9688;51.906;8.376;2022-10-18T02:48:18;101660.94;;;17.34;100.00
19112;BME280;9688;51.906;8.376;2022-10-18T02:51:04;101653.03;;;17.32;100.00
19112;BME280;9688;51.906;8.376;2022-10-18T02:53:49;101663.78;;;17.31;100.00
19112;BME280;9688;51.906;8.376;2022-10-18T02:56:37;101661.19;;;17.29;100.00
19112;BME280;9688;51.906;8.376;2022-10-18T02:59:22;101656.75;;;17.28;100.00
19112;BME280;9688;51.906;8.376;2022-10-18T03:02:08;101660.47;;;17.26;100.00
19112;BME280;9688;51.906;8.376;2022-10-18T03:04:53;101651.53;;;17.27;100.00
19112;BME280;9688;51.906;8.376;2022-10-18T03:07:39;101661.41;;;17.25;100.00
19112;BME280;9688;51.906;8.376;2022-10-18T03:10:24;101661.41;;;17.25;100.00
19112;BME280;9688;51.906;8.376;2022-10-18T05:17:17;101677.94;;;16.78;100.00
19112;BME280;9688;51.906;8.376;2022-10-18T05:20:28;101672.63;;;16.76;100.00
19112;BME280;9688;51.906;8.376;2022-10-18T05:23:14;101665.38;;;16.80;100.00
19112;BME280;9688;51.906;8.376;2022-10-18T05:26:19;101668.97;;;16.79;100.00
19112;BME280;9688;51.906;8.376;2022-10-18T05:29:23;101661.19;;;16.74;100.00
19112;BME280;9688;51.906;8.376;2022-10-18T05:32:29;101658.91;;;16.65;100.00
19112;BME280;9688;51.906;8.376;2022-10-18T05:35:34;101655.53;;;16.61;100.00
19112;BME280;9688;51.906;8.376;2022-10-18T05:38:40;101663.59;;;16.60;100.00
19112;BME280;9688;51.906;8.376;2022-10-18T05:41:46;101670.75;;;16.59;100.00
19112;BME280;9688;51.906;8.376;2022-10-18T05:44:50;101677.69;;;16.63;100.00
19112;BME280;9688;51.906;8.376;2022-10-18T05:47:56;101674.88;;;16.66;100.00
19112;BME280;9688;51.906;8.376;2022-10-18T05:51:01;101675.59;;;16.70;100.00
19112;BME280;9688;51.906;8.376;2022-10-18T05:54:07;101676.41;;;16.72;100.00
19112;BME280;9688;51.906;8.376;2022-10-18T05:57:13;101673.63;;;16.73;100.00
19112;BME280;9688;51.906;8.376;2022-10-18T06:00:18;101667.38;;;16.75;100.00
19112;BME280;9688;51.906;8.376;2022-10-18T06:03:27;101674.53;;;16.74;100.00
19112;BME280;9688;51.906;8.376;2022-10-18T06:06:33;101683.53;;;16.71;100.00
19112;BME280;9688;51.906;8.376;2022-10-18T06:09:38;101689.94;;;16.67;100.00
19112;BME280;9688;51.906;8.376;2022-10-18T06:15:38;101691.63;;;16.70;100.00
19112;BME280;9688;51.906;8.376;2022-10-18T06:18:27;101691.75;;;16.67;100.00
19112;BME280;9688;51.906;8.376;2022-10-18T06:21:20;101695.44;;;16.64;100.00
19112;BME280;9688;51.906;8.376;2022-10-18T06:24:07;101699.06;;;16.63;100.00
19112;BME280;9688;51.906;8.376;2022-10-18T06:26:57;101705.16;;;16.65;100.00
19112;BME280;9688;51.906;8.376;2022-10-18T06:29:44;101704.31;;;16.65;100.00
19112;BME280;9688;51.906;8.376;2022-10-18T06:32:45;101707.78;;;16.67;100.00
19112;BME280;9688;51.906;8.376;2022-10-18T06:35:32;101713.06;;;16.68;100.00
19112;BME280;9688;51.906;8.376;2022-10-18T06:38:20;101711.16;;;16.70;100.00
19112;BME280;9688;51.906;8.376;2022-10-18T06:41:06;101714.59;;;16.74;100.00
19112;BME280;9688;51.906;8.376;2022-10-18T06:43:52;101711.78;;;16.77;100.00
19112;BME280;9688;51.906;8.376;2022-10-18T06:46:42;101716.03;;;16.81;100.00
19112;BME280;9688;51.906;8.376;2022-10-18T06:49:28;101712.44;;;16.82;100.00
19112;BME280;9688;51.906;8.376;2022-10-18T06:52:17;101717.69;;;16.84;100.00
19112;BME280;9688;51.906;8.376;2022-10-18T06:55:07;101718.50;;;16.86;100.00
19112;BME280;9688;51.906;8.376;2022-10-18T06:57:56;101722.03;;;16.86;100.00
19112;BME280;9688;51.906;8.376;2022-10-18T07:00:42;101726.31;;;16.90;100.00
19112;BME280;9688;51.906;8.376;2022-10-18T07:03:29;101728.69;;;16.97;100.00
19112;BME280;9688;51.906;8.376;2022-10-18T07:06:16;101725.88;;;17.00;100.00
19112;BME280;9688;51.906;8.376;2022-10-18T07:09:05;101723.09;;;17.01;100.00
19112;BME280;9688;51.906;8.376;2022-10-18T07:11:51;101723.03;;;17.03;100.00
19112;BME280;9688;51.906;8.376;2022-10-18T07:14:37;101729.91;;;17.08;100.00
19112;BME280;9688;51.906;8.376;2022-10-18T07:17:23;101723.44;;;17.12;100.00
19112;BME280;9688;51.906;8.376;2022-10-18T07:20:19;101726.88;;;17.16;100.00
19112;BME280;9688;51.906;8.376;2022-10-18T07:23:31;101724.91;;;17.20;100.00
19112;BME280;9688;51.906;8.376;2022-10-18T07:26:21;101731.75;;;17.25;100.00
19112;BME280;9688;51.906;8.376;2022-10-18T07:29:09;101734.38;;;17.27;100.00
19112;BME280;9688;51.906;8.376;2022-10-18T07:31:56;101735.13;;;17.29;100.00
19112;BME280;9688;51.906;8.376;2022-10-18T07:34:43;101744.91;;;17.30;100.00
19112;BME280;9688;51.906;8.376;2022-10-18T07:37:30;101751.91;;;17.32;100.00
19112;BME280;9688;51.906;8.376;2022-10-18T07:40:17;101751.81;;;17.34;100.00
19112;BME280;9688;51.906;8.376;2022-10-18T07:43:05;101757.97;;;17.36;100.00
19112;BME280;9688;51.906;8.376;2022-10-18T07:45:51;101760.63;;;17.36;100.00
19112;BME280;9688;51.906;8.376;2022-10-18T07:48:37;101759.63;;;17.38;100.00
19112;BME280;9688;51.906;8.376;2022-10-18T08:16:57;101780.00;;;17.41;100.00
19112;BME280;9688;51.906;8.376;2022-10-18T08:19:43;101787.94;;;17.43;100.00
19112;BME280;9688;51.906;8.376;2022-10-18T08:23:02;101787.06;;;17.42;100.00
19112;BME280;9688;51.906;8.376;2022-10-18T08:26:09;101781.56;;;17.45;100.00
19112;BME280;9688;51.906;8.376;2022-10-18T08:33:35;101791.25;;;17.48;100.00
19112;BME280;9688;51.906;8.376;2022-10-18T08:36:41;101791.34;;;17.46;100.00
19112;BME280;9688;51.906;8.376;2022-10-18T08:39:51;101794.88;;;17.47;100.00
19112;BME280;9688;51.906;8.376;2022-10-18T08:43:04;101801.16;;;17.46;100.00
19112;BME280;9688;51.906;8.376;2022-10-18T08:46:13;101800.22;;;17.47;100.00
19112;BME280;9688;51.906;8.376;2022-10-18T08:49:46;101798.56;;;17.44;100.00
19112;BME280;9688;51.906;8.376;2022-10-18T08:53:02;101799.41;;;17.45;100.00
19112;BME280;9688;51.906;8.376;2022-10-18T08:56:11;101795.88;;;17.44;100.00
19112;BME280;9688;51.906;8.376;2022-10-18T08:59:17;101794.44;;;17.37;100.00
19112;BME280;9688;51.906;8.376;2022-10-18T09:02:37;101804.22;;;17.38;100.00
19112;BME280;9688;51.906;8.376;2022-10-18T09:05:50;101801.28;;;17.43;100.00
19112;BME280;9688;51.906;8.376;2022-10-18T09:09:04;101803.81;;;17.46;100.00
19112;BME280;9688;51.906;8.376;2022-10-18T09:15:40;101807.75;;;17.75;100.00
19112;BME280;9688;51.906;8.376;2022-10-18T09:18:45;101808.53;;;17.96;100.00
19112;BME280;9688;51.906;8.376;2022-10-18T09:21:48;101814.69;;;18.15;100.00
19112;BME280;9688;51.906;8.376;2022-10-18T09:24:41;101813.09;;;18.28;100.00
19112;BME280;9688;51.906;8.376;2022-10-18T09:27:54;101814.41;;;18.37;100.00
19112;BME280;9688;51.906;8.376;2022-10-18T09:30:46;101819.53;;;18.42;100.00
19112;BME280;9688;51.906;8.376;2022-10-18T09:33:41;101816.97;;;18.40;100.00
19112;BME280;9688;51.906;8.376;2022-10-18T09:36:30;101816.25;;;18.37;100.00
19112;BME280;9688;51.906;8.376;2022-10-18T09:39:22;101822.72;;;18.33;100.00
19112;BME280;9688;51.906;8.376;2022-10-18T09:42:13;101822.44;;;18.37;100.00
19112;BME280;9688;51.906;8.376;2022-10-18T09:45:07;101831.91;;;18.44;100.00
19112;BME280;9688;51.906;8.376;2022-10-18T09:48:03;101823.72;;;18.47;100.00
19112;BME280;9688;51.906;8.376;2022-10-18T09:50:56;101822.69;;;18.50;100.00
19112;BME280;9688;51.906;8.376;2022-10-18T09:53:55;101822.19;;;18.59;100.00
19112;BME280;9688;51.906;8.376;2022-10-18T09:56:47;101824.31;;;18.70;100.00
19112;BME280;9688;51.906;8.376;2022-10-18T09:59:37;101829.06;;;18.82;99.45
19112;BME280;9688;51.906;8.376;2022-10-18T10:02:24;101826.13;;;18.87;99.14
19112;BME280;9688;51.906;8.376;2022-10-18T10:05:12;101828.75;;;18.71;99.49
19112;BME280;9688;51.906;8.376;2022-10-18T10:07:58;101836.38;;;18.61;99.69
19112;BME280;9688;51.906;8.376;2022-10-18T10:10:46;101840.94;;;18.59;99.60
19112;BME280;9688;51.906;8.376;2022-10-18T10:22:40;101842.38;;;18.66;99.12
19112;BME280;9688;51.906;8.376;2022-10-18T10:25:50;101849.31;;;18.88;98.56
19112;BME280;9688;51.906;8.376;2022-10-18T10:28:57;101856.22;;;18.92;97.96
19112;BME280;9688;51.906;8.376;2022-10-18T10:32:11;101840.88;;;18.96;97.89
19112;BME280;9688;51.906;8.376;2022-10-18T10:35:24;101846.50;;;19.07;97.68
19112;BME280;9688;51.906;8.376;2022-10-18T10:38:35;101850.25;;;19.36;96.82
19112;BME280;9688;51.906;8.376;2022-10-18T10:41:40;101846.34;;;19.42;96.60
19112;BME280;9688;51.906;8.376;2022-10-18T10:44:52;101845.81;;;19.51;95.90
19112;BME280;9688;51.906;8.376;2022-10-18T10:48:05;101844.78;;;19.53;95.82
19112;BME280;9688;51.906;8.376;2022-10-18T10:51:27;101840.75;;;19.62;95.01
19112;BME280;9688;51.906;8.376;2022-10-18T10:54:38;101846.66;;;19.69;94.68
19112;BME280;9688;51.906;8.376;2022-10-18T10:57:47;101845.41;;;19.90;94.11
19112;BME280;9688;51.906;8.376;2022-10-18T11:00:55;101851.25;;;20.13;93.16
19112;BME280;9688;51.906;8.376;2022-10-18T11:04:03;101838.06;;;20.24;92.22
19112;BME280;9688;51.906;8.376;2022-10-18T11:07:29;101833.72;;;20.52;91.05
19112;BME280;9688;51.906;8.376;2022-10-18T11:10:40;101842.88;;;20.78;90.10
19112;BME280;9688;51.906;8.376;2022-10-18T11:13:50;101842.69;;;20.81;90.03
19112;BME280;9688;51.906;8.376;2022-10-18T11:17:00;101856.50;;;20.60;89.80
19112;BME280;9688;51.906;8.376;2022-10-18T11:20:34;101848.34;;;20.32;89.67
19112;BME280;9688;51.906;8.376;2022-10-18T11:24:06;101849.19;;;20.18;89.65
19112;BME280;9688;51.906;8.376;2022-10-18T11:27:28;101849.47;;;20.27;88.86
19112;BME280;9688;51.906;8.376;2022-10-18T11:30:48;101844.06;;;20.43;87.92
19112;BME280;9688;51.906;8.376;2022-10-18T11:34:08;101845.28;;;20.68;86.95
19112;BME280;9688;51.906;8.376;2022-10-18T11:37:30;101841.56;;;20.70;86.70
19112;BME280;9688;51.906;8.376;2022-10-18T11:41:05;101842.69;;;20.66;86.57
19112;BME280;9688;51.906;8.376;2022-10-18T11:44:30;101845.88;;;20.87;85.34
19112;BME280;9688;51.906;8.376;2022-10-18T11:47:42;101842.09;;;20.76;85.00
19112;BME280;9688;51.906;8.376;2022-10-18T11:50:52;101838.53;;;20.61;84.74
19112;BME280;9688;51.906;8.376;2022-10-18T11:57:42;101835.53;;;20.51;83.85
19112;BME280;9688;51.906;8.376;2022-10-18T12:00:52;101838.41;;;20.48;83.85
19112;BME280;9688;51.906;8.376;2022-10-18T12:04:03;101834.75;;;20.49;83.76
19112;BME280;9688;51.906;8.376;2022-10-18T12:07:14;101843.28;;;20.41;83.68
19112;BME280;9688;51.906;8.376;2022-10-18T12:10:20;101838.72;;;20.27;83.41
19112;BME280;9688;51.906;8.376;2022-10-18T12:13:33;101839.47;;;20.15;83.30
19112;BME280;9688;51.906;8.376;2022-10-18T12:16:42;101841.56;;;20.10;82.83
19112;BME280;9688;51.906;8.376;2022-10-18T12:19:48;101836.78;;;20.15;82.76
19112;BME280;9688;51.906;8.376;2022-10-18T12:22:55;101846.66;;;20.15;82.43
19112;BME280;9688;51.906;8.376;2022-10-18T12:30:31;101842.13;;;20.01;82.61
19112;BME280;9688;51.906;8.376;2022-10-18T12:33:42;101842.69;;;20.06;82.37
19112;BME280;9688;51.906;8.376;2022-10-18T12:37:01;101839.06;;;20.07;82.14
19112;BME280;9688;51.906;8.376;2022-10-18T12:40:12;101836.78;;;20.15;81.56
19112;BME280;9688;51.906;8.376;2022-10-18T12:43:22;101838.91;;;20.24;80.86
19112;BME280;9688;51.906;8.376;2022-10-18T12:46:42;101829.44;;;20.33;80.45
19112;BME280;9688;51.906;8.376;2022-10-18T12:50:27;101836.00;;;20.43;80.22
19112;BME280;9688;51.906;8.376;2022-10-18T12:53:34;101833.78;;;20.50;79.74
19112;BME280;9688;51.906;8.376;2022-10-18T12:56:41;101829.56;;;20.46;79.66
19112;BME280;9688;51.906;8.376;2022-10-18T12:59:46;101831.84;;;20.54;78.85
19112;BME280;9688;51.906;8.376;2022-10-18T13:03:40;101824.94;;;20.78;78.12
19112;BME280;9688;51.906;8.376;2022-10-18T13:07:16;101816.00;;;20.92;77.50
19112;BME280;9688;51.906;8.376;2022-10-18T13:10:34;101817.56;;;20.96;76.73
19112;BME280;9688;51.906;8.376;2022-10-18T13:14:09;101819.66;;;20.91;76.73
19112;BME280;9688;51.906;8.376;2022-10-18T13:17:31;101821.38;;;20.92;75.98
19112;BME280;9688;51.906;8.376;2022-10-18T13:20:42;101832.13;;;20.92;75.80
19112;BME280;9688;51.906;8.376;2022-10-18T13:24:04;101829.16;;;20.97;75.42
19112;BME280;9688;51.906;8.376;2022-10-18T13:27:20;101828.31;;;20.96;74.72
19112;BME280;9688;51.906;8.376;2022-10-18T13:30:42;101830.88;;;20.83;73.32
19112;BME280;9688;51.906;8.376;2022-10-18T13:33:51;101834.16;;;20.60;73.16
19112;BME280;9688;51.906;8.376;2022-10-18T13:36:58;101824.25;;;20.30;72.73
19112;BME280;9688;51.906;8.376;2022-10-18T13:40:27;101825.03;;;20.02;72.66
19112;BME280;9688;51.906;8.376;2022-10-18T13:44:02;101830.41;;;20.02;71.68
19112;BME280;9688;51.906;8.376;2022-10-18T13:47:14;101829.84;;;20.11;71.05
19112;BME280;9688;51.906;8.376;2022-10-18T13:50:34;101832.34;;;20.14;70.27
19112;BME280;9688;51.906;8.376;2022-10-18T13:53:48;101836.19;;;20.10;69.29
19112;BME280;9688;51.906;8.376;2022-10-18T13:57:16;101841.81;;;20.05;69.26
19112;BME280;9688;51.906;8.376;2022-10-18T14:00:47;101842.50;;;20.09;69.08
19112;BME280;9688;51.906;8.376;2022-10-18T14:07:35;101837.19;;;20.23;67.76
19112;BME280;9688;51.906;8.376;2022-10-18T14:10:52;101844.84;;;20.15;67.50
19112;BME280;9688;51.906;8.376;2022-10-18T14:14:07;101847.78;;;20.11;67.53
19112;BME280;9688;51.906;8.376;2022-10-18T14:17:26;101842.16;;;20.15;66.78
19112;BME280;9688;51.906;8.376;2022-10-18T14:20:37;101845.72;;;20.16;66.14
19112;BME280;9688;51.906;8.376;2022-10-18T14:23:43;101842.84;;;20.19;65.58
19112;BME280;9688;51.906;8.376;2022-10-18T14:26:41;101846.31;;;20.21;64.95
19112;BME280;9688;51.906;8.376;2022-10-18T14:29:28;101849.19;;;20.18;64.10
19112;BME280;9688;51.906;8.376;2022-10-18T14:32:24;101850.84;;;20.04;63.66
19112;BME280;9688;51.906;8.376;2022-10-18T14:35:18;101855.00;;;19.94;63.55
19112;BME280;9688;51.906;8.376;2022-10-18T14:38:11;101866.72;;;19.93;63.29
19112;BME280;9688;51.906;8.376;2022-10-18T14:41:14;101850.78;;;19.90;63.19
19112;BME280;9688;51.906;8.376;2022-10-18T14:44:16;101859.03;;;19.87;62.63
19112;BME280;9688;51.906;8.376;2022-10-18T14:47:13;101861.84;;;19.84;62.56
19112;BME280;9688;51.906;8.376;2022-10-18T14:49:59;101853.91;;;19.82;62.45
19112;BME280;9688;51.906;8.376;2022-10-18T14:52:54;101860.38;;;19.78;62.61
19112;BME280;9688;51.906;8.376;2022-10-18T14:55:40;101858.84;;;19.74;62.49
19112;BME280;9688;51.906;8.376;2022-10-18T14:58:26;101854.59;;;19.70;63.03
19112;BME280;9688;51.906;8.376;2022-10-18T15:01:15;101854.88;;;19.66;63.14
19112;BME280;9688;51.906;8.376;2022-10-18T15:04:07;101857.59;;;19.64;63.32
19112;BME280;9688;51.906;8.376;2022-10-18T15:06:54;101856.06;;;19.60;63.78
19112;BME280;9688;51.906;8.376;2022-10-18T15:09:42;101860.63;;;19.58;63.83
19112;BME280;9688;51.906;8.376;2022-10-18T15:12:31;101869.66;;;19.57;64.09
19112;BME280;9688;51.906;8.376;2022-10-18T15:15:39;101848.59;;;19.49;64.21
19112;BME280;9688;51.906;8.376;2022-10-18T15:18:58;101861.66;;;19.39;64.62
19112;BME280;9688;51.906;8.376;2022-10-18T15:22:07;101852.06;;;19.35;64.75
19112;BME280;9688;51.906;8.376;2022-10-18T15:25:21;101863.31;;;19.26;64.72
19112;BME280;9688;51.906;8.376;2022-10-18T15:28:24;101862.69;;;19.21;64.67
19112;BME280;9688;51.906;8.376;2022-10-18T15:31:22;101856.72;;;19.16;64.91
19112;BME280;9688;51.906;8.376;2022-10-18T15:34:10;101858.59;;;19.14;65.40
19112;BME280;9688;51.906;8.376;2022-10-18T15:37:16;101859.13;;;19.05;65.32
19112;BME280;9688;51.906;8.376;2022-10-18T15:40:30;101862.31;;;18.96;65.83
19112;BME280;9688;51.906;8.376;2022-10-18T15:43:34;101867.19;;;18.87;65.75
19112;BME280;9688;51.906;8.376;2022-10-18T15:46:29;101857.75;;;18.80;65.91
19112;BME280;9688;51.906;8.376;2022-10-18T15:52:46;101865.06;;;18.59;66.18
19112;BME280;9688;51.906;8.376;2022-10-18T15:55:46;101867.13;;;18.54;66.29
19112;BME280;9688;51.906;8.376;2022-10-18T15:58:39;101871.91;;;18.47;66.34
19112;BME280;9688;51.906;8.376;2022-10-18T16:01:32;101866.94;;;18.40;66.48
19112;BME280;9688;51.906;8.376;2022-10-18T16:04:22;101860.09;;;18.34;66.80
19112;BME280;9688;51.906;8.376;2022-10-18T16:07:10;101865.94;;;18.25;66.62
19112;BME280;9688;51.906;8.376;2022-10-18T16:09:57;101873.41;;;18.18;67.24
19112;BME280;9688;51.906;8.376;2022-10-18T16:12:43;101872.06;;;18.10;67.24
19112;BME280;9688;51.906;8.376;2022-10-18T16:15:47;101866.50;;;17.95;68.12
19112;BME280;9688;51.906;8.376;2022-10-18T16:18:52;101874.34;;;17.81;68.31
19112;BME280;9688;51.906;8.376;2022-10-18T16:21:57;101875.78;;;17.69;68.68
19112;BME280;9688;51.906;8.376;2022-10-18T16:25:09;101872.06;;;17.54;69.10
19112;BME280;9688;51.906;8.376;2022-10-18T16:27:55;101874.44;;;17.42;69.43
19112;BME280;9688;51.906;8.376;2022-10-18T16:30:45;101873.06;;;17.33;69.58
19112;BME280;9688;51.906;8.376;2022-10-18T16:33:32;101880.47;;;17.26;69.76
19112;BME280;9688;51.906;8.376;2022-10-18T16:36:23;101876.41;;;17.17;70.01
19112;BME280;9688;51.906;8.376;2022-10-18T16:39:14;101892.88;;;17.08;70.32
19112;BME280;9688;51.906;8.376;2022-10-18T16:42:03;101888.88;;;16.98;70.53
19112;BME280;9688;51.906;8.376;2022-10-18T16:44:50;101893.78;;;16.88;71.91
19112;BME280;9688;51.906;8.376;2022-10-18T16:47:38;101897.75;;;16.80;71.91
19112;BME280;9688;51.906;8.376;2022-10-18T16:50:24;101900.84;;;16.69;72.24
19112;BME280;9688;51.906;8.376;2022-10-18T16:53:11;101905.69;;;16.59;72.73
19112;BME280;9688;51.906;8.376;2022-10-18T16:55:58;101915.78;;;16.53;73.46
19112;BME280;9688;51.906;8.376;2022-10-18T16:58:46;101911.69;;;16.44;73.18
19112;BME280;9688;51.906;8.376;2022-10-18T17:01:32;101918.16;;;16.38;74.45
19112;BME280;9688;51.906;8.376;2022-10-18T17:04:18;101917.63;;;16.30;74.63
19112;BME280;9688;51.906;8.376;2022-10-18T17:07:04;101915.25;;;16.22;74.78
19112;BME280;9688;51.906;8.376;2022-10-18T17:09:52;101916.50;;;16.14;75.14
19112;BME280;9688;51.906;8.376;2022-10-18T17:12:37;101920.34;;;16.06;75.41
19112;BME280;9688;51.906;8.376;2022-10-18T17:19:27;101926.50;;;15.87;75.82
19112;BME280;9688;51.906;8.376;2022-10-18T17:22:13;101926.75;;;15.80;76.26
19112;BME280;9688;51.906;8.376;2022-10-18T17:24:59;101936.84;;;15.72;76.81
19112;BME280;9688;51.906;8.376;2022-10-18T17:27:45;101937.94;;;15.65;77.27
19112;BME280;9688;51.906;8.376;2022-10-18T17:30:31;101941.78;;;15.58;77.44
19112;BME280;9688;51.906;8.376;2022-10-18T17:33:17;101951.81;;;15.51;77.71
19112;BME280;9688;51.906;8.376;2022-10-18T17:36:06;101951.19;;;15.45;78.12
19112;BME280;9688;51.906;8.376;2022-10-18T17:38:54;101962.94;;;15.39;78.24
19112;BME280;9688;51.906;8.376;2022-10-18T17:41:42;101969.41;;;15.32;77.95
19112;BME280;9688;51.906;8.376;2022-10-18T17:44:28;101970.56;;;15.25;78.64
19112;BME280;9688;51.906;8.376;2022-10-18T17:47:13;101968.09;;;15.18;78.78
19112;BME280;9688;51.906;8.376;2022-10-18T17:54:00;101959.75;;;15.04;79.23
19112;BME280;9688;51.906;8.376;2022-10-18T17:56:46;101964.34;;;14.99;79.27
19112;BME280;9688;51.906;8.376;2022-10-18T17:59:56;101976.28;;;14.89;79.54
19112;BME280;9688;51.906;8.376;2022-10-18T18:02:43;101976.38;;;14.86;79.72
19112;BME280;9688;51.906;8.376;2022-10-18T18:05:30;101973.97;;;14.78;80.39
19112;BME280;9688;51.906;8.376;2022-10-18T18:08:16;101974.22;;;14.70;80.02
19112;BME280;9688;51.906;8.376;2022-10-18T18:11:03;101972.75;;;14.62;80.50
19112;BME280;9688;51.906;8.376;2022-10-18T18:17:01;101976.81;;;14.45;81.05
19112;BME280;9688;51.906;8.376;2022-10-18T18:19:47;101982.44;;;14.36;81.83
19112;BME280;9688;51.906;8.376;2022-10-18T18:22:33;101983.53;;;14.29;82.37
19112;BME280;9688;51.906;8.376;2022-10-18T18:25:21;101976.72;;;14.20;82.16
19112;BME280;9688;51.906;8.376;2022-10-18T18:28:08;101977.91;;;14.12;82.33
19112;BME280;9688;51.906;8.376;2022-10-18T18:30:53;101975.44;;;14.05;82.83
19112;BME280;9688;51.906;8.376;2022-10-18T18:33:39;101973.78;;;14.01;83.43
19112;BME280;9688;51.906;8.376;2022-10-18T18:36:26;101972.19;;;13.96;83.60
19112;BME280;9688;51.906;8.376;2022-10-18T18:39:18;101967.91;;;13.90;83.92
19112;BME280;9688;51.906;8.376;2022-10-18T18:42:04;101979.56;;;13.86;84.23
19112;BME280;9688;51.906;8.376;2022-10-18T18:44:51;101981.44;;;13.82;84.42
19112;BME280;9688;51.906;8.376;2022-10-18T18:47:37;101977.19;;;13.77;84.71
19112;BME280;9688;51.906;8.376;2022-10-18T18:50:23;101981.78;;;13.72;85.13
19112;BME280;9688;51.906;8.376;2022-10-18T18:53:09;101986.38;;;13.65;85.49
19112;BME280;9688;51.906;8.376;2022-10-18T18:56:00;101982.19;;;13.58;85.92
19112;BME280;9688;51.906;8.376;2022-10-18T18:58:46;101985.91;;;13.52;85.80
19112;BME280;9688;51.906;8.376;2022-10-18T19:01:34;101987.81;;;13.47;86.25
19112;BME280;9688;51.906;8.376;2022-10-18T19:04:20;101993.22;;;13.44;86.48
19112;BME280;9688;51.906;8.376;2022-10-18T19:07:06;101994.25;;;13.38;86.88
19112;BME280;9688;51.906;8.376;2022-10-18T19:09:51;101997.97;;;13.31;86.78
19112;BME280;9688;51.906;8.376;2022-10-18T19:15:34;102001.06;;;13.14;87.36
19112;BME280;9688;51.906;8.376;2022-10-18T19:18:22;102003.00;;;13.08;88.00
19112;BME280;9688;51.906;8.376;2022-10-18T19:21:17;102004.97;;;13.00;88.07
19112;BME280;9688;51.906;8.376;2022-10-18T19:24:04;102003.34;;;12.94;88.34
19112;BME280;9688;51.906;8.376;2022-10-18T19:26:51;102007.03;;;12.90;88.52
19112;BME280;9688;51.906;8.376;2022-10-18T19:29:38;102018.63;;;12.86;88.48